sensor_id;sensor_type;location;lat;lon;timestamp;pressure;altitude;pressure_sealevel;temperature;humidity
61292;BME280;47165;42.664;23.368;2023-09-18T00:00:55;95492.63;;;20.81;64.96
61292;BME280;47165;42.664;23.368;2023-09-18T00:03:22;95487.75;;;20.86;64.81
61292;BME280;47165;42.664;23.368;2023-09-18T00:05:50;95488.28;;;20.89;64.89
61292;BME280;47165;42.664;23.368;2023-09-18T00:08:17;95485.25;;;20.94;64.65
61292;BME280;47165;42.664;23.368;2023-09-18T00:10:52;95484.53;;;20.92;64.87
61292;BME280;47165;42.664;23.368;2023-09-18T00:13:17;95497.34;;;20.77;65.45
61292;BME280;47165;42.664;23.368;2023-09-18T00:15:44;95481.56;;;20.85;65.39
61292;BME280;47165;42.664;23.368;2023-09-18T00:18:17;95476.72;;;20.90;64.81
61292;BME280;47165;42.664;23.368;2023-09-18T00:20:43;95480.19;;;20.91;64.87
61292;BME280;47165;42.664;23.368;2023-09-18T00:23:09;95480.06;;;20.93;64.85
61292;BME280;47165;42.664;23.368;2023-09-18T00:25:35;95477.84;;;20.88;65.01
61292;BME280;47165;42.664;23.368;2023-09-18T00:28:02;95481.19;;;20.90;64.63
61292;BME280;47165;42.664;23.368;2023-09-18T00:30:28;95482.00;;;20.90;64.82
61292;BME280;47165;42.664;23.368;2023-09-18T00:32:53;95479.22;;;20.92;64.72
61292;BME280;47165;42.664;23.368;2023-09-18T00:35:18;95480.88;;;20.93;64.82
61292;BME280;47165;42.664;23.368;2023-09-18T00:37:44;95484.66;;;20.81;65.13
61292;BME280;47165;42.664;23.368;2023-09-18T00:40:10;95478.91;;;20.85;64.82
61292;BME280;47165;42.664;23.368;2023-09-18T00:42:36;95481.44;;;20.87;64.72
61292;BME280;47165;42.664;23.368;2023-09-18T00:45:01;95488.69;;;20.65;64.91
61292;BME280;47165;42.664;23.368;2023-09-18T00:47:27;95497.50;;;20.66;65.33
61292;BME280;47165;42.664;23.368;2023-09-18T00:49:54;95499.31;;;20.65;65.56
61292;BME280;47165;42.664;23.368;2023-09-18T00:52:20;95486.00;;;20.56;65.79
61292;BME280;47165;42.664;23.368;2023-09-18T00:54:47;95487.31;;;20.61;65.47
61292;BME280;47165;42.664;23.368;2023-09-18T00:57:13;95493.34;;;20.33;66.42
61292;BME280;47165;42.664;23.368;2023-09-18T00:59:39;95493.66;;;20.49;65.91
61292;BME280;47165;42.664;23.368;2023-09-18T01:02:05;95490.91;;;20.60;65.40
61292;BME280;47165;42.664;23.368;2023-09-18T01:04:32;95493.16;;;20.65;65.07
61292;BME280;47165;42.664;23.368;2023-09-18T01:06:59;95497.50;;;20.66;65.06
61292;BME280;47165;42.664;23.368;2023-09-18T01:09:30;95506.03;;;20.79;64.75
61292;BME280;47165;42.664;23.368;2023-09-18T01:12:18;95501.28;;;20.83;64.35
61292;BME280;47165;42.664;23.368;2023-09-18T01:15:02;95498.75;;;20.72;64.45
61292;BME280;47165;42.664;23.368;2023-09-18T01:17:34;95499.31;;;20.65;64.74
61292;BME280;47165;42.664;23.368;2023-09-18T01:20:03;95502.50;;;20.69;64.72
61292;BME280;47165;42.664;23.368;2023-09-18T01:22:31;95495.94;;;20.73;64.33
61292;BME280;47165;42.664;23.368;2023-09-18T01:24:57;95493.03;;;20.76;64.36
61292;BME280;47165;42.664;23.368;2023-09-18T01:27:23;95491.38;;;20.85;63.82
61292;BME280;47165;42.664;23.368;2023-09-18T01:29:48;95494.28;;;20.92;63.39
61292;BME280;47165;42.664;23.368;2023-09-18T01:32:15;95494.88;;;20.95;63.36
61292;BME280;47165;42.664;23.368;2023-09-18T01:34:46;95492.66;;;21.00;63.36
61292;BME280;47165;42.664;23.368;2023-09-18T01:37:12;95490.38;;;20.96;63.32
61292;BME280;47165;42.664;23.368;2023-09-18T01:39:39;95489.56;;;20.95;63.18
61292;BME280;47165;42.664;23.368;2023-09-18T01:42:06;95494.59;;;20.98;63.11
61292;BME280;47165;42.664;23.368;2023-09-18T01:44:32;95490.13;;;20.99;62.85
61292;BME280;47165;42.664;23.368;2023-09-18T01:47:01;95496.25;;;20.99;62.72
61292;BME280;47165;42.664;23.368;2023-09-18T01:49:34;95499.34;;;21.04;62.63
61292;BME280;47165;42.664;23.368;2023-09-18T01:52:00;95496.84;;;21.03;62.57
61292;BME280;47165;42.664;23.368;2023-09-18T01:54:26;95496.94;;;20.72;63.82
61292;BME280;47165;42.664;23.368;2023-09-18T01:56:53;95498.59;;;20.73;63.59
61292;BME280;47165;42.664;23.368;2023-09-18T01:59:19;95504.06;;;20.81;63.45
61292;BME280;47165;42.664;23.368;2023-09-18T02:01:45;95507.28;;;20.85;63.47
61292;BME280;47165;42.664;23.368;2023-09-18T02:04:11;95509.13;;;20.94;63.22
61292;BME280;47165;42.664;23.368;2023-09-18T02:06:36;95511.06;;;20.82;63.60
61292;BME280;47165;42.664;23.368;2023-09-18T02:09:02;95503.53;;;20.78;63.50
61292;BME280;47165;42.664;23.368;2023-09-18T02:11:29;95508.66;;;20.79;63.73
61292;BME280;47165;42.664;23.368;2023-09-18T02:13:54;95507.72;;;20.80;63.74
61292;BME280;47165;42.664;23.368;2023-09-18T02:16:21;95504.38;;;20.88;63.50
61292;BME280;47165;42.664;23.368;2023-09-18T02:18:49;95515.81;;;20.79;63.50
61292;BME280;47165;42.664;23.368;2023-09-18T02:21:21;95506.41;;;20.65;63.94
61292;BME280;47165;42.664;23.368;2023-09-18T02:23:51;95510.09;;;20.74;63.79
61292;BME280;47165;42.664;23.368;2023-09-18T02:26:21;95516.09;;;20.85;63.34
61292;BME280;47165;42.664;23.368;2023-09-18T02:28:47;95502.13;;;20.93;63.12
61292;BME280;47165;42.664;23.368;2023-09-18T02:31:13;95505.19;;;20.79;63.41
61292;BME280;47165;42.664;23.368;2023-09-18T02:33:39;95508.84;;;20.78;63.27
61292;BME280;47165;42.664;23.368;2023-09-18T02:36:05;95513.16;;;20.79;63.12
61292;BME280;47165;42.664;23.368;2023-09-18T02:38:31;95509.69;;;20.88;62.71
61292;BME280;47165;42.664;23.368;2023-09-18T02:40:57;95513.59;;;20.84;62.70
61292;BME280;47165;42.664;23.368;2023-09-18T02:43:23;95505.63;;;20.84;62.57
61292;BME280;47165;42.664;23.368;2023-09-18T02:45:49;95506.34;;;20.86;62.56
61292;BME280;47165;42.664;23.368;2023-09-18T02:48:16;95503.38;;;20.89;62.57
61292;BME280;47165;42.664;23.368;2023-09-18T02:50:41;95509.06;;;20.65;62.54
61292;BME280;47165;42.664;23.368;2023-09-18T02:53:11;95503.78;;;20.75;62.76
61292;BME280;47165;42.664;23.368;2023-09-18T02:55:41;95503.38;;;20.79;62.60
61292;BME280;47165;42.664;23.368;2023-09-18T02:58:07;95506.31;;;20.76;62.69
61292;BME280;47165;42.664;23.368;2023-09-18T03:00:34;95510.91;;;20.74;62.52
61292;BME280;47165;42.664;23.368;2023-09-18T03:02:59;95512.31;;;20.78;62.64
61292;BME280;47165;42.664;23.368;2023-09-18T03:05:25;95509.38;;;20.72;62.80
61292;BME280;47165;42.664;23.368;2023-09-18T03:07:52;95506.69;;;20.62;62.91
61292;BME280;47165;42.664;23.368;2023-09-18T03:10:17;95514.09;;;20.58;62.90
61292;BME280;47165;42.664;23.368;2023-09-18T03:12:47;95512.97;;;20.61;63.00
61292;BME280;47165;42.664;23.368;2023-09-18T03:15:13;95512.25;;;20.59;62.78
61292;BME280;47165;42.664;23.368;2023-09-18T03:17:38;95505.16;;;20.59;63.10
61292;BME280;47165;42.664;23.368;2023-09-18T03:20:06;95504.88;;;20.62;62.97
61292;BME280;47165;42.664;23.368;2023-09-18T03:22:32;95503.47;;;20.58;62.84
61292;BME280;47165;42.664;23.368;2023-09-18T03:24:58;95510.47;;;20.59;62.76
61292;BME280;47165;42.664;23.368;2023-09-18T03:27:23;95505.88;;;20.61;62.84
61292;BME280;47165;42.664;23.368;2023-09-18T03:29:54;95498.75;;;20.62;62.98
61292;BME280;47165;42.664;23.368;2023-09-18T03:32:20;95502.22;;;20.62;62.88
61292;BME280;47165;42.664;23.368;2023-09-18T03:34:46;95501.78;;;20.57;62.70
61292;BME280;47165;42.664;23.368;2023-09-18T03:37:12;95501.34;;;20.52;62.91
61292;BME280;47165;42.664;23.368;2023-09-18T03:39:37;95502.59;;;20.48;62.80
61292;BME280;47165;42.664;23.368;2023-09-18T03:42:03;95491.28;;;20.46;63.12
61292;BME280;47165;42.664;23.368;2023-09-18T03:44:29;95495.31;;;20.50;62.98
61292;BME280;47165;42.664;23.368;2023-09-18T03:46:54;95494.22;;;20.43;63.36
61292;BME280;47165;42.664;23.368;2023-09-18T03:49:20;95496.53;;;20.36;63.42
61292;BME280;47165;42.664;23.368;2023-09-18T03:51:45;95494.59;;;20.28;63.82
61292;BME280;47165;42.664;23.368;2023-09-18T03:54:11;95494.97;;;20.24;64.19
61292;BME280;47165;42.664;23.368;2023-09-18T03:56:36;95491.78;;;20.20;64.00
61292;BME280;47165;42.664;23.368;2023-09-18T03:59:01;95482.69;;;20.23;63.97
61292;BME280;47165;42.664;23.368;2023-09-18T04:01:27;95492.91;;;20.27;63.77
61292;BME280;47165;42.664;23.368;2023-09-18T04:03:53;95495.22;;;20.11;64.35
61292;BME280;47165;42.664;23.368;2023-09-18T04:06:22;95486.47;;;20.20;64.33
61292;BME280;47165;42.664;23.368;2023-09-18T04:08:50;95493.84;;;20.17;64.24
61292;BME280;47165;42.664;23.368;2023-09-18T04:11:17;95490.78;;;20.21;64.08
61292;BME280;47165;42.664;23.368;2023-09-18T04:13:44;95490.78;;;20.21;64.38
61292;BME280;47165;42.664;23.368;2023-09-18T04:16:09;95486.59;;;20.19;64.35
61292;BME280;47165;42.664;23.368;2023-09-18T04:18:38;95489.19;;;20.09;64.34
61292;BME280;47165;42.664;23.368;2023-09-18T04:21:04;95492.38;;;20.03;64.96
61292;BME280;47165;42.664;23.368;2023-09-18T04:23:29;95492.38;;;20.03;65.16
61292;BME280;47165;42.664;23.368;2023-09-18T04:25:55;95498.22;;;19.97;65.34
61292;BME280;47165;42.664;23.368;2023-09-18T04:28:23;95497.09;;;19.99;65.24
61292;BME280;47165;42.664;23.368;2023-09-18T04:30:49;95500.78;;;20.08;65.25
61292;BME280;47165;42.664;23.368;2023-09-18T04:33:15;95508.88;;;20.06;65.09
61292;BME280;47165;42.664;23.368;2023-09-18T04:35:41;95501.31;;;20.02;65.35
61292;BME280;47165;42.664;23.368;2023-09-18T04:38:07;95506.44;;;19.94;65.93
61292;BME280;47165;42.664;23.368;2023-09-18T04:40:36;95505.03;;;19.89;65.88
61292;BME280;47165;42.664;23.368;2023-09-18T04:43:02;95505.47;;;19.95;65.31
61292;BME280;47165;42.664;23.368;2023-09-18T04:45:30;95503.41;;;19.98;65.41
61292;BME280;47165;42.664;23.368;2023-09-18T04:47:56;95503.56;;;20.06;64.85
61292;BME280;47165;42.664;23.368;2023-09-18T04:50:22;95500.38;;;19.82;65.86
61292;BME280;47165;42.664;23.368;2023-09-18T04:52:47;95507.69;;;19.89;65.80
61292;BME280;47165;42.664;23.368;2023-09-18T04:55:13;95510.34;;;19.89;65.82
61292;BME280;47165;42.664;23.368;2023-09-18T04:57:39;95504.84;;;19.81;65.87
61292;BME280;47165;42.664;23.368;2023-09-18T05:00:05;95501.94;;;19.84;66.11
61292;BME280;47165;42.664;23.368;2023-09-18T05:02:35;95494.28;;;19.91;65.92
61292;BME280;47165;42.664;23.368;2023-09-18T05:05:00;95501.56;;;19.99;65.10
61292;BME280;47165;42.664;23.368;2023-09-18T05:07:26;95492.97;;;20.06;65.14
61292;BME280;47165;42.664;23.368;2023-09-18T05:09:52;95492.56;;;20.11;64.92
61292;BME280;47165;42.664;23.368;2023-09-18T05:12:18;95492.03;;;20.17;64.58
61292;BME280;47165;42.664;23.368;2023-09-18T05:14:43;95493.03;;;20.26;64.19
61292;BME280;47165;42.664;23.368;2023-09-18T05:17:10;95497.16;;;20.09;65.16
61292;BME280;47165;42.664;23.368;2023-09-18T05:19:37;95501.50;;;20.10;65.23
61292;BME280;47165;42.664;23.368;2023-09-18T05:22:03;95506.69;;;20.21;64.45
61292;BME280;47165;42.664;23.368;2023-09-18T05:24:28;95509.09;;;20.24;64.54
61292;BME280;47165;42.664;23.368;2023-09-18T05:26:54;95519.25;;;20.19;65.06
61292;BME280;47165;42.664;23.368;2023-09-18T05:29:20;95514.78;;;20.20;64.93
61292;BME280;47165;42.664;23.368;2023-09-18T05:31:46;95514.75;;;20.10;65.39
61292;BME280;47165;42.664;23.368;2023-09-18T05:34:12;95509.75;;;20.17;65.17
61292;BME280;47165;42.664;23.368;2023-09-18T05:36:38;95517.47;;;20.29;65.00
61292;BME280;47165;42.664;23.368;2023-09-18T05:39:04;95515.97;;;20.37;64.44
61292;BME280;47165;42.664;23.368;2023-09-18T05:41:29;95517.63;;;20.38;64.20
61292;BME280;47165;42.664;23.368;2023-09-18T05:43:58;95511.78;;;20.44;64.28
61292;BME280;47165;42.664;23.368;2023-09-18T05:46:23;95518.91;;;20.43;64.14
61292;BME280;47165;42.664;23.368;2023-09-18T05:48:49;95520.31;;;20.47;64.02
61292;BME280;47165;42.664;23.368;2023-09-18T05:51:15;95526.91;;;20.53;64.20
61292;BME280;47165;42.664;23.368;2023-09-18T05:53:41;95524.97;;;20.55;64.22
61292;BME280;47165;42.664;23.368;2023-09-18T05:56:06;95524.97;;;20.55;63.98
61292;BME280;47165;42.664;23.368;2023-09-18T05:58:32;95527.34;;;20.58;63.79
61292;BME280;47165;42.664;23.368;2023-09-18T06:01:00;95528.31;;;20.57;64.14
61292;BME280;47165;42.664;23.368;2023-09-18T06:03:26;95523.31;;;20.64;63.90
61292;BME280;47165;42.664;23.368;2023-09-18T06:05:52;95530.03;;;20.68;64.07
61292;BME280;47165;42.664;23.368;2023-09-18T06:08:18;95522.66;;;20.72;63.94
61292;BME280;47165;42.664;23.368;2023-09-18T06:10:44;95513.44;;;20.76;63.99
61292;BME280;47165;42.664;23.368;2023-09-18T06:13:10;95517.75;;;20.77;64.45
61292;BME280;47165;42.664;23.368;2023-09-18T06:15:36;95522.22;;;20.76;64.46
61292;BME280;47165;42.664;23.368;2023-09-18T06:18:02;95518.59;;;20.87;63.79
61292;BME280;47165;42.664;23.368;2023-09-18T06:20:28;95525.75;;;20.86;64.12
61292;BME280;47165;42.664;23.368;2023-09-18T06:22:54;95522.25;;;20.96;63.71
61292;BME280;47165;42.664;23.368;2023-09-18T06:25:20;95524.22;;;21.03;63.36
61292;BME280;47165;42.664;23.368;2023-09-18T06:27:45;95527.16;;;21.00;63.51
61292;BME280;47165;42.664;23.368;2023-09-18T06:30:11;95521.16;;;20.98;63.42
61292;BME280;47165;42.664;23.368;2023-09-18T06:32:37;95526.88;;;21.03;63.06
61292;BME280;47165;42.664;23.368;2023-09-18T06:35:03;95527.31;;;21.08;62.73
61292;BME280;47165;42.664;23.368;2023-09-18T06:37:28;95528.41;;;21.16;62.30
61292;BME280;47165;42.664;23.368;2023-09-18T06:39:54;95525.91;;;21.24;62.04
61292;BME280;47165;42.664;23.368;2023-09-18T06:42:20;95530.63;;;21.20;62.07
61292;BME280;47165;42.664;23.368;2023-09-18T06:44:45;95524.66;;;21.08;62.28
61292;BME280;47165;42.664;23.368;2023-09-18T06:47:11;95527.28;;;21.28;61.94
61292;BME280;47165;42.664;23.368;2023-09-18T06:49:37;95521.84;;;21.20;61.85
61292;BME280;47165;42.664;23.368;2023-09-18T06:52:03;95526.72;;;21.34;61.77
61292;BME280;47165;42.664;23.368;2023-09-18T06:54:28;95521.00;;;21.09;61.76
61292;BME280;47165;42.664;23.368;2023-09-18T06:56:54;95527.31;;;21.38;61.24
61292;BME280;47165;42.664;23.368;2023-09-18T06:59:20;95525.63;;;21.46;60.88
61292;BME280;47165;42.664;23.368;2023-09-18T07:01:45;95525.78;;;21.55;60.73
61292;BME280;47165;42.664;23.368;2023-09-18T07:04:10;95529.81;;;21.59;60.78
61292;BME280;47165;42.664;23.368;2023-09-18T07:06:37;95526.44;;;21.76;60.39
61292;BME280;47165;42.664;23.368;2023-09-18T07:09:02;95523.63;;;21.78;59.98
61292;BME280;47165;42.664;23.368;2023-09-18T07:11:30;95528.34;;;21.94;59.69
61292;BME280;47165;42.664;23.368;2023-09-18T07:13:55;95514.47;;;22.00;59.49
61292;BME280;47165;42.664;23.368;2023-09-18T07:16:21;95526.91;;;22.09;59.29
61292;BME280;47165;42.664;23.368;2023-09-18T07:18:46;95524.50;;;22.16;59.02
61292;BME280;47165;42.664;23.368;2023-09-18T07:21:12;95520.56;;;22.29;58.86
61292;BME280;47165;42.664;23.368;2023-09-18T07:23:39;95525.44;;;22.34;58.32
61292;BME280;47165;42.664;23.368;2023-09-18T07:26:04;95524.88;;;22.30;57.60
61292;BME280;47165;42.664;23.368;2023-09-18T07:28:31;95527.84;;;22.27;57.78
61292;BME280;47165;42.664;23.368;2023-09-18T07:30:57;95526.16;;;22.26;57.19
61292;BME280;47165;42.664;23.368;2023-09-18T07:33:22;95526.69;;;22.40;57.38
61292;BME280;47165;42.664;23.368;2023-09-18T07:35:49;95523.34;;;22.56;57.36
61292;BME280;47165;42.664;23.368;2023-09-18T07:38:17;95530.91;;;22.60;56.43
61292;BME280;47165;42.664;23.368;2023-09-18T07:40:44;95523.78;;;22.61;56.20
61292;BME280;47165;42.664;23.368;2023-09-18T07:43:10;95528.78;;;22.64;56.39
61292;BME280;47165;42.664;23.368;2023-09-18T07:45:38;95529.31;;;22.67;56.39
61292;BME280;47165;42.664;23.368;2023-09-18T07:48:08;95528.59;;;22.75;55.91
61292;BME280;47165;42.664;23.368;2023-09-18T07:50:37;95530.19;;;22.86;55.87
61292;BME280;47165;42.664;23.368;2023-09-18T07:53:02;95526.72;;;22.58;55.78
61292;BME280;47165;42.664;23.368;2023-09-18T07:55:28;95527.44;;;22.78;55.50
61292;BME280;47165;42.664;23.368;2023-09-18T07:57:55;95525.00;;;22.84;55.18
61292;BME280;47165;42.664;23.368;2023-09-18T08:00:21;95521.47;;;22.94;54.54
61292;BME280;47165;42.664;23.368;2023-09-18T08:02:48;95520.31;;;22.96;54.56
61292;BME280;47165;42.664;23.368;2023-09-18T08:05:16;95521.13;;;23.06;54.52
61292;BME280;47165;42.664;23.368;2023-09-18T08:07:41;95515.19;;;23.13;54.19
61292;BME280;47165;42.664;23.368;2023-09-18T08:10:07;95505.28;;;23.23;54.25
61292;BME280;47165;42.664;23.368;2023-09-18T08:12:34;95505.28;;;23.23;54.03
61292;BME280;47165;42.664;23.368;2023-09-18T08:14:59;95512.31;;;23.24;54.00
61292;BME280;47165;42.664;23.368;2023-09-18T08:17:25;95511.06;;;23.36;53.51
61292;BME280;47165;42.664;23.368;2023-09-18T08:19:51;95504.81;;;23.45;52.86
61292;BME280;47165;42.664;23.368;2023-09-18T08:22:18;95506.78;;;23.43;52.42
61292;BME280;47165;42.664;23.368;2023-09-18T08:24:45;95503.50;;;23.49;52.79
61292;BME280;47165;42.664;23.368;2023-09-18T08:27:13;95509.22;;;23.55;52.10
61292;BME280;47165;42.664;23.368;2023-09-18T08:29:39;95514.25;;;23.58;52.25
61292;BME280;47165;42.664;23.368;2023-09-18T08:32:04;95501.97;;;23.65;51.81
61292;BME280;47165;42.664;23.368;2023-09-18T08:34:30;95500.03;;;23.75;51.79
61292;BME280;47165;42.664;23.368;2023-09-18T08:36:55;95491.75;;;23.78;52.12
61292;BME280;47165;42.664;23.368;2023-09-18T08:39:21;95496.66;;;23.91;51.96
61292;BME280;47165;42.664;23.368;2023-09-18T08:41:49;95492.84;;;23.94;51.57
61292;BME280;47165;42.664;23.368;2023-09-18T08:44:16;95489.84;;;23.97;51.18
61292;BME280;47165;42.664;23.368;2023-09-18T08:46:43;95472.44;;;23.84;51.24
61292;BME280;47165;42.664;23.368;2023-09-18T08:49:11;95475.44;;;24.16;51.27
61292;BME280;47165;42.664;23.368;2023-09-18T08:51:38;95469.84;;;24.27;50.83
61292;BME280;47165;42.664;23.368;2023-09-18T08:54:04;95479.81;;;24.17;50.62
61292;BME280;47165;42.664;23.368;2023-09-18T08:56:31;95474.00;;;24.29;49.33
61292;BME280;47165;42.664;23.368;2023-09-18T08:58:58;95474.56;;;24.41;49.33
61292;BME280;47165;42.664;23.368;2023-09-18T09:01:25;95474.97;;;24.55;49.49
61292;BME280;47165;42.664;23.368;2023-09-18T09:03:50;95478.13;;;24.50;49.07
61292;BME280;47165;42.664;23.368;2023-09-18T09:06:18;95473.34;;;24.70;48.98
61292;BME280;47165;42.664;23.368;2023-09-18T09:08:44;95478.19;;;24.75;47.47
61292;BME280;47165;42.664;23.368;2023-09-18T09:11:09;95470.84;;;24.77;47.34
61292;BME280;47165;42.664;23.368;2023-09-18T09:13:35;95476.88;;;24.79;47.26
61292;BME280;47165;42.664;23.368;2023-09-18T09:16:01;95479.75;;;24.94;47.30
61292;BME280;47165;42.664;23.368;2023-09-18T09:18:28;95473.91;;;24.98;46.74
61292;BME280;47165;42.664;23.368;2023-09-18T09:20:58;95475.09;;;25.12;46.86
61292;BME280;47165;42.664;23.368;2023-09-18T09:23:51;95470.44;;;25.30;46.91
61292;BME280;47165;42.664;23.368;2023-09-18T09:26:19;95462.28;;;25.40;47.11
61292;BME280;47165;42.664;23.368;2023-09-18T09:28:46;95462.94;;;25.50;46.20
61292;BME280;47165;42.664;23.368;2023-09-18T09:31:23;95460.59;;;25.47;44.94
61292;BME280;47165;42.664;23.368;2023-09-18T09:33:52;95461.59;;;25.46;45.21
61292;BME280;47165;42.664;23.368;2023-09-18T09:36:24;95454.91;;;25.50;44.75
61292;BME280;47165;42.664;23.368;2023-09-18T09:38:55;95458.25;;;25.53;44.59
61292;BME280;47165;42.664;23.368;2023-09-18T09:41:25;95451.03;;;25.61;44.98
61292;BME280;47165;42.664;23.368;2023-09-18T09:43:53;95451.22;;;25.68;43.79
61292;BME280;47165;42.664;23.368;2023-09-18T09:46:22;95456.88;;;25.81;43.83
61292;BME280;47165;42.664;23.368;2023-09-18T09:49:04;95453.88;;;25.93;43.47
61292;BME280;47165;42.664;23.368;2023-09-18T09:51:31;95451.69;;;25.96;42.73
61292;BME280;47165;42.664;23.368;2023-09-18T09:53:57;95447.81;;;26.07;42.34
61292;BME280;47165;42.664;23.368;2023-09-18T09:56:48;95444.72;;;26.26;42.58
61292;BME280;47165;42.664;23.368;2023-09-18T09:59:16;95437.84;;;26.32;42.20
61292;BME280;47165;42.664;23.368;2023-09-18T10:01:43;95437.28;;;26.45;41.91
61292;BME280;47165;42.664;23.368;2023-09-18T10:04:15;95438.72;;;26.56;42.31
61292;BME280;47165;42.664;23.368;2023-09-18T10:06:57;95433.84;;;26.67;41.99
61292;BME280;47165;42.664;23.368;2023-09-18T10:09:26;95433.56;;;26.62;40.92
61292;BME280;47165;42.664;23.368;2023-09-18T10:11:56;95429.75;;;26.80;41.46
61292;BME280;47165;42.664;23.368;2023-09-18T10:14:43;95435.06;;;26.88;40.45
61292;BME280;47165;42.664;23.368;2023-09-18T10:17:18;95426.91;;;27.04;40.69
61292;BME280;47165;42.664;23.368;2023-09-18T10:20:05;95418.44;;;27.16;39.47
61292;BME280;47165;42.664;23.368;2023-09-18T10:22:42;95423.31;;;27.12;39.20
61292;BME280;47165;42.664;23.368;2023-09-18T10:25:15;95417.38;;;27.25;39.21
61292;BME280;47165;42.664;23.368;2023-09-18T10:27:47;95409.13;;;27.49;38.91
61292;BME280;47165;42.664;23.368;2023-09-18T10:30:24;95417.00;;;27.66;38.92
61292;BME280;47165;42.664;23.368;2023-09-18T10:32:51;95406.75;;;27.84;38.68
61292;BME280;47165;42.664;23.368;2023-09-18T10:35:17;95402.38;;;27.68;37.58
61292;BME280;47165;42.664;23.368;2023-09-18T10:37:43;95400.69;;;27.91;37.56
61292;BME280;47165;42.664;23.368;2023-09-18T10:40:11;95403.09;;;28.00;37.19
61292;BME280;47165;42.664;23.368;2023-09-18T10:42:38;95392.72;;;28.12;37.32
61292;BME280;47165;42.664;23.368;2023-09-18T10:45:05;95386.38;;;28.35;37.28
61292;BME280;47165;42.664;23.368;2023-09-18T10:47:32;95383.00;;;28.62;37.82
61292;BME280;47165;42.664;23.368;2023-09-18T10:49:59;95381.75;;;28.80;36.32
61292;BME280;47165;42.664;23.368;2023-09-18T10:52:26;95381.41;;;28.89;35.40
61292;BME280;47165;42.664;23.368;2023-09-18T10:54:52;95376.41;;;29.23;35.83
61292;BME280;47165;42.664;23.368;2023-09-18T10:57:18;95372.94;;;29.29;34.51
61292;BME280;47165;42.664;23.368;2023-09-18T10:59:45;95379.00;;;29.66;34.01
61292;BME280;47165;42.664;23.368;2023-09-18T11:02:14;95372.69;;;29.80;33.40
61292;BME280;47165;42.664;23.368;2023-09-18T11:04:42;95373.50;;;30.16;33.35
61292;BME280;47165;42.664;23.368;2023-09-18T11:07:07;95368.47;;;30.06;32.64
61292;BME280;47165;42.664;23.368;2023-09-18T11:09:42;95369.06;;;30.43;32.63
61292;BME280;47165;42.664;23.368;2023-09-18T11:12:09;95362.13;;;30.82;32.36
61292;BME280;47165;42.664;23.368;2023-09-18T11:14:55;95363.44;;;31.13;31.62
61292;BME280;47165;42.664;23.368;2023-09-18T11:20:20;95348.09;;;31.53;29.92
61292;BME280;47165;42.664;23.368;2023-09-18T11:22:59;95346.81;;;31.82;30.06
61292;BME280;47165;42.664;23.368;2023-09-18T11:25:39;95337.13;;;32.26;29.10
61292;BME280;47165;42.664;23.368;2023-09-18T11:28:22;95347.72;;;33.12;28.51
61292;BME280;47165;42.664;23.368;2023-09-18T11:30:58;95339.06;;;34.15;27.44
61292;BME280;47165;42.664;23.368;2023-09-18T11:33:37;95333.06;;;34.92;25.67
61292;BME280;47165;42.664;23.368;2023-09-18T11:36:08;95329.41;;;35.40;25.12
61292;BME280;47165;42.664;23.368;2023-09-18T11:38:58;95332.75;;;36.42;23.67
61292;BME280;47165;42.664;23.368;2023-09-18T11:41:30;95320.66;;;37.07;23.42
61292;BME280;47165;42.664;23.368;2023-09-18T11:46:50;95323.63;;;38.07;21.14
61292;BME280;47165;42.664;23.368;2023-09-18T11:49:20;95312.56;;;38.41;21.26
61292;BME280;47165;42.664;23.368;2023-09-18T11:51:53;95317.47;;;38.88;20.17
61292;BME280;47165;42.664;23.368;2023-09-18T11:54:19;95306.63;;;39.58;20.13
61292;BME280;47165;42.664;23.368;2023-09-18T11:56:46;95306.53;;;39.42;19.37
61292;BME280;47165;42.664;23.368;2023-09-18T11:59:12;95296.88;;;39.72;19.90
61292;BME280;47165;42.664;23.368;2023-09-18T12:01:38;95303.94;;;39.63;19.38
61292;BME280;47165;42.664;23.368;2023-09-18T12:04:12;95300.78;;;39.44;19.73
61292;BME280;47165;42.664;23.368;2023-09-18T12:06:41;95300.97;;;39.75;19.04
61292;BME280;47165;42.664;23.368;2023-09-18T12:09:06;95304.16;;;39.99;18.80
61292;BME280;47165;42.664;23.368;2023-09-18T12:11:33;95302.69;;;40.34;18.72
61292;BME280;47165;42.664;23.368;2023-09-18T12:14:04;95295.53;;;40.28;18.96
61292;BME280;47165;42.664;23.368;2023-09-18T12:16:30;95305.31;;;40.08;18.82
61292;BME280;47165;42.664;23.368;2023-09-18T12:18:56;95300.75;;;39.81;19.26
61292;BME280;47165;42.664;23.368;2023-09-18T12:21:22;95295.22;;;39.01;19.74
61292;BME280;47165;42.664;23.368;2023-09-18T12:23:48;95301.03;;;38.34;20.73
61292;BME280;47165;42.664;23.368;2023-09-18T12:26:15;95287.59;;;38.05;21.19
61292;BME280;47165;42.664;23.368;2023-09-18T12:28:42;95292.13;;;37.60;21.55
61292;BME280;47165;42.664;23.368;2023-09-18T12:31:15;95287.31;;;37.51;22.36
61292;BME280;47165;42.664;23.368;2023-09-18T12:33:42;95295.81;;;37.71;22.09
61292;BME280;47165;42.664;23.368;2023-09-18T12:36:09;95290.94;;;38.12;21.75
61292;BME280;47165;42.664;23.368;2023-09-18T12:38:37;95286.81;;;38.32;21.54
61292;BME280;47165;42.664;23.368;2023-09-18T12:41:04;95289.22;;;38.28;20.85
61292;BME280;47165;42.664;23.368;2023-09-18T12:43:38;95292.69;;;38.01;21.50
61292;BME280;47165;42.664;23.368;2023-09-18T12:46:05;95288.13;;;37.51;21.93
61292;BME280;47165;42.664;23.368;2023-09-18T12:48:31;95292.22;;;37.88;21.84
61292;BME280;47165;42.664;23.368;2023-09-18T12:51:04;95286.06;;;38.14;21.40
61292;BME280;47165;42.664;23.368;2023-09-18T12:53:30;95275.69;;;37.38;22.37
61292;BME280;47165;42.664;23.368;2023-09-18T12:56:08;95275.84;;;37.49;21.70
61292;BME280;47165;42.664;23.368;2023-09-18T12:58:35;95274.25;;;37.87;22.18